Aeroporto :
LOGIN :

Iscrizione | Disclaimer

   EN    FR    IT 

 










Sommario :    VFR   VFR Marginale   IFR   IFR Intensivo   IFR Molto Intensivo
Visibilità : 
Base nubi : 
>= 8 km
>= 3000ft
5 / 8 km
1000 / 3000 ft
1500m / 5 km
500 / 1000 ft
800 / 1500m
200 / 500 ft
< 800m
< 200 ft
Simboli :   Temporali  Nebbia  Neve Forte  Precipitazioni Forti  Vento > 20 kt
SIGMETs :   Varie  Temporali  Ghiacco  Turbolenza  Onda orograficha  Ceneri Vulcaniche






- Altitudine del aeroporto : 681 ft
- Codice IATA : LBA


EGNM - Leeds Bradford

ULTIMO METAR :
  • 242250Z 26010KT 9999 SCT004 BKN007 05/05 Q1018

METARs OBSOLETI :
  • 242220Z 26012KT 9999 SCT005 BKN008 05/05 Q1019
  • 242150Z 27015KT 9999 SCT005 BKN008 05/05 Q1019
  • 242120Z 26014KT 9999 SCT006 BKN008 05/04 Q1019
  • 242050Z 26011KT 9999 SCT008 BKN009 06/04 Q1019
  • 242020Z 26011KT 9999 SCT007 BKN009 06/05 Q1019

TAF TAF EGNM
Valido dal 24 a 18 ore il 25 a 18 ore UTC


241657Z 2418/2518 25007KT 9999 FEW010 SCT018
TEMPO 2418/2510 8000 BKN005
PROB30 2500/2506 4000 BR
ATIS : +44 113 250 9696 (x2489)



MetMap, La meteo Aeronautica in un colpo d'occhio ! - Copyright ORBIFLY Dicembre 2007 - Disclaimer

ORBIFLY MET'MAP TEAM :

Programmazione e sviluppo : Alexandra Zaïnal
Concezione : Baudouin d'Aumeries
Aiuto per la programmazione : Marc-Olivier Méhu
Supporto tecnico e logistico : Manuel Goepfert
Aiuto per la traduzione : Arnaldo La Scala

Contatto : metmap@orbifly.com




FONTI E CREDITI :

   NOAA